Terminal Aerodrome Forecast
Issued by NWS Springfield, MO

Home | Current Version | Previous Version | Text Only | Print | Product List | Glossary On
Versions: 1 2 3 4 5 6 7 8 9 10 11 12 13 14 15 16 17 18 19 20 21 22 23 24 25 26 27 28 29
152
FTUS43 KSGF 241132 CCA
TAFSGF
TAF COR
KSGF 241132Z 2412/2512 29009KT P6SM BKN008
     FM241300 29012KT P6SM BKN020
     FM241400 29012G20KT P6SM BKN010
     FM241600 29011KT P6SM BKN020
     FM241700 29012KT P6SM BKN035
     FM242300 30014G23KT P6SM BKN090
     FM250900 31012G22KT P6SM SCT060=

USA.gov is the U.S. government's official web portal to all federal, state and local government web resources and services.